createdAt,value
2023-03-30T00:00:32.474Z,9.92
2023-03-30T00:02:38.880Z,9.88
2023-03-30T00:04:43.247Z,9.84
2023-03-30T00:06:46.949Z,9.82
2023-03-30T00:08:53.745Z,9.79
2023-03-30T00:11:02.527Z,9.76
2023-03-30T00:13:06.257Z,9.73
2023-03-30T00:15:12.564Z,9.71
2023-03-30T00:17:17.729Z,9.68
2023-03-30T00:19:21.796Z,9.67
2023-03-30T00:21:25.332Z,9.64
2023-03-30T00:23:29.018Z,9.63
2023-03-30T00:25:32.652Z,9.59
2023-03-30T00:27:36.417Z,9.59
2023-03-30T00:29:42.639Z,9.60
2023-03-30T00:31:46.434Z,9.58
2023-03-30T00:33:52.021Z,9.58
2023-03-30T00:35:57.494Z,9.57
2023-03-30T00:38:03.492Z,9.57
2023-03-30T00:40:08.980Z,9.58
2023-03-30T00:42:17.691Z,9.59
2023-03-30T00:45:07.068Z,9.59
2023-03-30T00:47:11.020Z,9.60
2023-03-30T00:49:16.016Z,9.61
2023-03-30T00:51:19.830Z,9.62
2023-03-30T00:53:26.586Z,9.65
2023-03-30T00:55:33.732Z,9.64
2023-03-30T00:57:38.899Z,9.65
2023-03-30T00:59:42.541Z,9.65
2023-03-30T01:01:50.232Z,9.66
2023-03-30T01:03:54.419Z,9.67
2023-03-30T01:06:01.423Z,9.68
2023-03-30T01:08:07.747Z,9.68
2023-03-30T01:10:12.853Z,9.71
2023-03-30T01:12:16.616Z,9.72
2023-03-30T01:14:22.402Z,9.73
2023-03-30T01:16:31.527Z,9.74
2023-03-30T01:18:47.955Z,9.76
2023-03-30T01:21:27.601Z,9.78
2023-03-30T01:24:27.939Z,9.80
2023-03-30T01:26:57.163Z,9.83
2023-03-30T01:29:08.393Z,9.85
2023-03-30T01:31:46.369Z,9.86
2023-03-30T01:34:17.854Z,9.87
2023-03-30T01:37:11.636Z,9.88
2023-03-30T01:39:33.923Z,9.91
2023-03-30T01:41:41.075Z,9.93
2023-03-30T01:43:51.207Z,9.94
2023-03-30T01:46:01.338Z,9.93
2023-03-30T01:48:11.694Z,9.95
2023-03-30T01:50:18.395Z,9.94
2023-03-30T01:52:29.032Z,9.94
2023-03-30T01:54:38.039Z,9.94
2023-03-30T01:56:48.018Z,9.92
2023-03-30T01:58:55.336Z,9.90
2023-03-30T02:00:59.998Z,9.88
2023-03-30T02:03:08.822Z,9.88
2023-03-30T02:05:18.082Z,9.88
2023-03-30T02:07:26.329Z,9.88
2023-03-30T02:09:32.526Z,9.86
2023-03-30T02:11:40.009Z,9.84
2023-03-30T02:13:44.599Z,9.83
2023-03-30T02:15:52.849Z,9.82
2023-03-30T02:17:56.386Z,9.80
2023-03-30T02:20:00.350Z,9.79
2023-03-30T02:22:03.936Z,9.78
2023-03-30T02:24:17.876Z,9.77
2023-03-30T02:26:23.046Z,9.74
2023-03-30T02:28:28.082Z,9.74
2023-03-30T02:30:34.820Z,9.72
2023-03-30T02:32:42.619Z,9.68
2023-03-30T02:35:02.671Z,9.67
2023-03-30T02:37:32.784Z,9.64
2023-03-30T02:39:47.863Z,9.63
2023-03-30T02:42:33.166Z,9.61
2023-03-30T02:44:45.116Z,9.57
2023-03-30T02:47:04.078Z,9.56
2023-03-30T02:49:19.199Z,9.54
2023-03-30T02:51:40.101Z,9.51
2023-03-30T02:54:15.436Z,9.48
2023-03-30T02:56:47.029Z,9.46
2023-03-30T02:58:55.357Z,9.45
2023-03-30T03:01:05.101Z,9.45
2023-03-30T03:03:24.527Z,9.42
2023-03-30T03:05:32.654Z,9.40
2023-03-30T03:07:42.867Z,9.38
2023-03-30T03:09:47.801Z,9.36
2023-03-30T03:11:52.416Z,9.35
2023-03-30T03:13:56.140Z,9.34
2023-03-30T03:16:04.201Z,9.32
2023-03-30T03:18:08.729Z,9.31
2023-03-30T03:20:13.880Z,9.30
2023-03-30T03:22:17.323Z,9.28
2023-03-30T03:24:22.420Z,9.28
2023-03-30T03:26:57.452Z,9.25
2023-03-30T03:29:03.630Z,9.23
2023-03-30T03:31:08.490Z,9.23
2023-03-30T03:33:11.932Z,9.22
2023-03-30T03:35:18.016Z,9.21
2023-03-30T03:37:21.452Z,9.19
2023-03-30T03:39:25.126Z,9.18
2023-03-30T03:41:33.024Z,9.19
2023-03-30T03:43:36.800Z,9.19
2023-03-30T03:45:40.290Z,9.19
2023-03-30T03:47:45.086Z,9.20
2023-03-30T03:49:48.389Z,9.20
2023-03-30T03:51:51.777Z,9.20
2023-03-30T03:53:55.072Z,9.19
2023-03-30T03:55:58.568Z,9.20
2023-03-30T03:58:03.548Z,9.20
2023-03-30T04:00:15.780Z,9.21
2023-03-30T04:02:23.941Z,9.21
2023-03-30T04:04:31.104Z,9.22
2023-03-30T04:06:34.134Z,9.22
2023-03-30T04:08:37.733Z,9.21
2023-03-30T04:11:08.170Z,9.21
2023-03-30T04:13:46.679Z,9.21
2023-03-30T04:16:09.438Z,9.20
2023-03-30T04:18:33.737Z,9.20
2023-03-30T04:20:48.261Z,9.20
2023-03-30T04:23:10.235Z,9.18
2023-03-30T04:25:32.383Z,9.16
2023-03-30T04:27:56.183Z,9.14
2023-03-30T04:30:22.566Z,9.13
2023-03-30T04:32:45.056Z,9.13
2023-03-30T04:35:11.272Z,9.12
2023-03-30T04:37:34.614Z,9.14
2023-03-30T04:40:16.440Z,9.14
2023-03-30T04:42:37.954Z,9.10
2023-03-30T04:45:02.333Z,9.08
2023-03-30T04:47:30.350Z,9.09
2023-03-30T04:49:52.185Z,9.10
2023-03-30T04:52:14.454Z,9.11
2023-03-30T04:54:42.966Z,9.10
2023-03-30T04:57:14.187Z,9.12
2023-03-30T04:59:20.942Z,9.14
2023-03-30T05:01:43.344Z,9.15
2023-03-30T05:04:06.958Z,9.17
2023-03-30T05:06:33.604Z,9.17
2023-03-30T05:09:03.041Z,9.16
2023-03-30T05:11:43.604Z,9.13
2023-03-30T05:14:01.796Z,9.11
2023-03-30T05:16:31.368Z,9.05
2023-03-30T05:19:01.584Z,8.96
2023-03-30T05:21:27.704Z,8.93
2023-03-30T05:23:52.292Z,8.93
2023-03-30T05:26:14.421Z,8.93
2023-03-30T05:28:19.537Z,8.92
2023-03-30T05:30:32.654Z,8.92
2023-03-30T05:33:02.669Z,8.95
2023-03-30T05:35:27.239Z,8.96
2023-03-30T05:37:39.893Z,8.98
2023-03-30T05:40:16.245Z,8.97
2023-03-30T05:42:40.184Z,8.98
2023-03-30T05:45:09.818Z,9.01
2023-03-30T05:47:32.063Z,9.05
2023-03-30T05:49:38.403Z,9.08
2023-03-30T05:52:17.771Z,9.11
2023-03-30T05:54:33.456Z,9.14
2023-03-30T05:56:47.080Z,9.18
2023-03-30T05:58:57.811Z,9.24
2023-03-30T06:01:28.799Z,9.28
2023-03-30T06:03:34.967Z,9.31
2023-03-30T06:05:42.160Z,9.34
2023-03-30T06:07:47.534Z,9.33
2023-03-30T06:09:51.371Z,9.32
2023-03-30T06:12:02.771Z,9.30
2023-03-30T06:14:08.079Z,9.33
2023-03-30T06:16:13.429Z,9.34
2023-03-30T06:18:19.141Z,9.36
2023-03-30T06:20:32.716Z,9.38
2023-03-30T06:22:37.245Z,9.39
2023-03-30T06:24:47.671Z,9.43
2023-03-30T06:26:52.416Z,9.47
2023-03-30T06:28:56.545Z,9.51
2023-03-30T06:31:03.369Z,9.54
2023-03-30T06:33:08.218Z,9.59
2023-03-30T06:35:21.844Z,9.67
2023-03-30T06:37:27.070Z,9.75
2023-03-30T06:39:30.499Z,9.80
2023-03-30T06:41:34.056Z,9.86
2023-03-30T06:43:41.965Z,9.89
2023-03-30T06:45:54.207Z,9.94
2023-03-30T06:47:57.991Z,9.99
2023-03-30T06:50:01.761Z,10.02
2023-03-30T06:52:25.538Z,10.04
2023-03-30T06:54:30.237Z,10.05
2023-03-30T06:56:41.890Z,10.06
2023-03-30T06:58:47.383Z,10.10
2023-03-30T07:00:51.345Z,10.14
2023-03-30T07:03:07.377Z,10.15
2023-03-30T07:05:48.205Z,10.20
2023-03-30T07:07:59.890Z,10.27
2023-03-30T07:10:10.242Z,10.33
2023-03-30T07:12:14.151Z,10.39
2023-03-30T07:14:17.821Z,10.46
2023-03-30T07:16:22.388Z,10.57
2023-03-30T07:18:26.010Z,10.74
2023-03-30T07:20:29.733Z,10.84
2023-03-30T07:22:43.871Z,10.86
2023-03-30T07:24:49.214Z,10.84
2023-03-30T07:26:53.129Z,10.83
2023-03-30T07:28:57.654Z,10.80
2023-03-30T07:31:07.004Z,10.74
2023-03-30T07:33:12.038Z,10.70
2023-03-30T07:35:15.839Z,10.68
2023-03-30T07:37:21.005Z,10.62
2023-03-30T07:39:26.523Z,10.57
2023-03-30T07:41:31.871Z,10.54
2023-03-30T07:43:36.821Z,10.49
2023-03-30T07:45:40.666Z,10.48
2023-03-30T07:47:47.171Z,10.48
2023-03-30T07:49:52.243Z,10.45
2023-03-30T07:51:56.517Z,10.46
2023-03-30T07:54:12.024Z,10.51
2023-03-30T07:56:39.728Z,10.57
2023-03-30T07:58:46.324Z,10.64
2023-03-30T08:00:50.447Z,10.71
2023-03-30T08:03:12.975Z,10.74
2023-03-30T08:05:17.991Z,10.78
2023-03-30T08:07:40.565Z,10.80
2023-03-30T08:09:51.983Z,10.84
2023-03-30T08:11:57.998Z,10.88
2023-03-30T08:14:02.014Z,10.89
2023-03-30T08:16:06.125Z,10.89
2023-03-30T08:18:13.150Z,10.92
2023-03-30T08:20:17.621Z,10.98
2023-03-30T08:22:21.238Z,11.07
2023-03-30T08:24:24.995Z,11.23
2023-03-30T08:26:28.593Z,11.39
2023-03-30T08:28:34.245Z,11.52
2023-03-30T08:30:37.923Z,11.59
2023-03-30T08:32:41.753Z,11.65
2023-03-30T08:34:45.207Z,11.70
2023-03-30T08:36:49.164Z,11.78
2023-03-30T08:38:53.459Z,11.84
2023-03-30T08:40:57.343Z,11.93
2023-03-30T08:43:34.576Z,12.05
2023-03-30T08:45:42.793Z,12.22
2023-03-30T08:47:49.594Z,12.36
2023-03-30T08:50:02.353Z,12.53
2023-03-30T08:52:08.098Z,12.70
2023-03-30T08:54:16.967Z,12.82
2023-03-30T08:56:23.697Z,12.92
2023-03-30T08:58:40.496Z,12.91
2023-03-30T09:00:50.434Z,12.88
2023-03-30T09:03:00.711Z,12.85
2023-03-30T09:05:11.107Z,12.90
2023-03-30T09:07:19.865Z,13.00
2023-03-30T09:09:26.423Z,13.07
2023-03-30T09:11:34.907Z,13.22
2023-03-30T09:13:41.108Z,13.32
2023-03-30T09:15:51.982Z,13.36
2023-03-30T09:18:01.398Z,13.40
2023-03-30T09:20:10.473Z,13.53
2023-03-30T09:22:16.376Z,13.63
2023-03-30T09:24:26.308Z,13.67
2023-03-30T09:26:37.064Z,13.71
2023-03-30T09:28:51.111Z,13.85
2023-03-30T09:31:02.904Z,14.01
2023-03-30T09:33:15.783Z,14.04
2023-03-30T09:35:25.042Z,14.14
2023-03-30T09:37:29.974Z,14.22
2023-03-30T09:39:35.506Z,14.29
2023-03-30T09:42:01.267Z,14.41
2023-03-30T09:44:04.834Z,14.53
2023-03-30T09:46:10.312Z,14.49
2023-03-30T09:48:17.413Z,14.49
2023-03-30T09:50:24.921Z,14.55
2023-03-30T09:52:30.226Z,14.65
2023-03-30T09:54:38.316Z,14.69
2023-03-30T09:56:47.898Z,14.76
2023-03-30T09:58:51.679Z,14.89
2023-03-30T10:01:08.576Z,14.98
2023-03-30T10:03:22.083Z,14.86
2023-03-30T10:05:26.505Z,14.55
2023-03-30T10:07:33.412Z,14.26
2023-03-30T10:09:46.016Z,14.01
2023-03-30T10:11:51.777Z,13.90
2023-03-30T10:13:55.477Z,13.95
2023-03-30T10:16:05.375Z,14.01
2023-03-30T10:18:25.351Z,14.00
2023-03-30T10:20:34.609Z,13.96
2023-03-30T10:22:49.552Z,13.91
2023-03-30T10:24:55.708Z,13.88
2023-03-30T10:27:01.109Z,13.81
2023-03-30T10:29:07.660Z,13.77
2023-03-30T10:31:17.686Z,13.70
2023-03-30T10:33:23.289Z,13.63
2023-03-30T10:35:29.877Z,13.60
2023-03-30T10:37:37.604Z,13.69
2023-03-30T10:39:43.440Z,13.71
2023-03-30T10:41:48.891Z,13.72
2023-03-30T10:43:53.479Z,13.82
2023-03-30T10:46:09.030Z,13.99
2023-03-30T10:48:49.342Z,14.27
2023-03-30T10:50:59.394Z,14.52
2023-03-30T10:53:14.861Z,14.62
2023-03-30T10:55:24.875Z,14.63
2023-03-30T10:57:41.277Z,14.58
2023-03-30T11:00:10.010Z,14.39
2023-03-30T11:02:41.530Z,14.19
2023-03-30T11:04:49.119Z,14.05
2023-03-30T11:06:54.801Z,14.14
2023-03-30T11:09:02.504Z,14.37
2023-03-30T11:11:09.164Z,14.56
2023-03-30T11:13:17.347Z,14.74
2023-03-30T11:15:27.336Z,14.81
2023-03-30T11:17:34.391Z,14.81
2023-03-30T11:19:43.735Z,14.68
2023-03-30T11:21:57.096Z,14.52
2023-03-30T11:24:08.494Z,14.37
2023-03-30T11:26:13.775Z,14.28
2023-03-30T11:28:24.420Z,14.33
2023-03-30T11:30:31.346Z,14.39
2023-03-30T11:32:40.360Z,14.38
2023-03-30T11:34:55.594Z,14.33
2023-03-30T11:37:06.903Z,14.33
2023-03-30T11:39:28.892Z,14.40
2023-03-30T11:41:38.335Z,14.54
2023-03-30T11:43:42.548Z,14.69
2023-03-30T11:45:56.602Z,14.79
2023-03-30T11:48:13.718Z,14.65
2023-03-30T11:50:33.522Z,14.40
2023-03-30T11:52:48.063Z,14.36
2023-03-30T11:55:23.986Z,14.47
2023-03-30T11:57:35.192Z,14.63
2023-03-30T11:59:47.484Z,14.72
2023-03-30T12:02:08.516Z,14.81
2023-03-30T12:04:16.047Z,14.91
2023-03-30T12:06:30.347Z,14.99
2023-03-30T12:08:50.265Z,15.09
2023-03-30T12:11:02.737Z,15.15
2023-03-30T12:13:07.067Z,15.18
2023-03-30T12:15:27.687Z,15.18
2023-03-30T12:17:49.632Z,15.23
2023-03-30T12:19:58.767Z,15.33
2023-03-30T12:22:06.923Z,15.40
2023-03-30T12:24:20.336Z,15.45
2023-03-30T12:26:28.666Z,15.43
2023-03-30T12:30:57.538Z,15.34
2023-03-30T12:33:12.529Z,15.42
2023-03-30T12:35:48.355Z,15.48
2023-03-30T12:37:52.870Z,15.45
2023-03-30T12:40:06.464Z,15.46
2023-03-30T12:42:26.368Z,15.48
2023-03-30T12:44:39.955Z,15.51
2023-03-30T12:46:53.041Z,15.53
2023-03-30T12:49:08.036Z,15.52
2023-03-30T12:51:22.200Z,15.46
2023-03-30T12:53:53.985Z,15.45
2023-03-30T12:56:07.735Z,15.39
2023-03-30T12:58:44.139Z,15.30
2023-03-30T13:01:08.185Z,15.21
2023-03-30T13:03:32.935Z,15.10
2023-03-30T13:05:40.986Z,15.13
2023-03-30T13:07:46.312Z,15.17
2023-03-30T13:09:55.986Z,15.22
2023-03-30T13:12:29.237Z,15.26
2023-03-30T13:14:46.203Z,15.37
2023-03-30T13:17:11.571Z,15.44
2023-03-30T13:19:22.645Z,15.50
2023-03-30T13:21:27.471Z,15.52
2023-03-30T13:23:33.855Z,15.51
2023-03-30T13:25:44.532Z,15.50
2023-03-30T13:27:52.633Z,15.52
2023-03-30T13:29:58.423Z,15.59
2023-03-30T13:32:16.425Z,15.62
2023-03-30T13:34:32.905Z,15.63
2023-03-30T13:36:41.784Z,15.56
2023-03-30T13:39:05.440Z,15.50
2023-03-30T13:41:28.460Z,15.42
2023-03-30T13:43:53.803Z,15.34
2023-03-30T13:46:15.557Z,15.26
2023-03-30T13:48:40.747Z,15.17
2023-03-30T13:50:48.429Z,15.10
2023-03-30T13:52:54.029Z,15.11
2023-03-30T13:54:58.477Z,15.13
2023-03-30T13:57:09.697Z,15.17
2023-03-30T13:59:19.563Z,15.23
2023-03-30T14:01:25.707Z,15.30
2023-03-30T14:03:39.798Z,15.37
2023-03-30T14:05:43.600Z,15.45
2023-03-30T14:07:47.684Z,15.49
2023-03-30T14:10:10.029Z,15.54
2023-03-30T14:12:15.127Z,15.60
2023-03-30T14:14:25.263Z,15.62
2023-03-30T14:16:35.210Z,15.63
2023-03-30T14:18:39.079Z,15.67
2023-03-30T14:20:48.861Z,15.68
2023-03-30T14:22:54.150Z,15.69
2023-03-30T14:24:59.792Z,15.69
2023-03-30T14:27:05.520Z,15.70
2023-03-30T14:29:24.594Z,15.70
2023-03-30T14:31:42.531Z,15.68
2023-03-30T14:33:47.064Z,15.68
2023-03-30T14:35:53.154Z,15.69
2023-03-30T14:38:06.768Z,15.71
2023-03-30T14:40:18.366Z,15.72
2023-03-30T14:42:23.854Z,15.72
2023-03-30T14:44:27.575Z,15.70
2023-03-30T14:46:39.249Z,15.63
2023-03-30T14:48:49.305Z,15.56
2023-03-30T14:50:54.390Z,15.53
2023-03-30T14:52:58.234Z,15.49
2023-03-30T14:55:09.103Z,15.47
2023-03-30T14:57:17.654Z,15.45
2023-03-30T14:59:22.106Z,15.42
2023-03-30T15:01:31.688Z,15.41
2023-03-30T15:03:38.534Z,15.39
2023-03-30T15:05:47.233Z,15.40
2023-03-30T15:07:52.543Z,15.43
2023-03-30T15:09:57.534Z,15.49
2023-03-30T15:12:03.392Z,15.53
2023-03-30T15:14:09.976Z,15.54
2023-03-30T15:16:19.528Z,15.51
2023-03-30T15:18:27.268Z,15.49
2023-03-30T15:20:32.720Z,15.54
2023-03-30T15:22:40.254Z,15.60
2023-03-30T15:24:44.501Z,15.63
2023-03-30T15:26:50.804Z,15.66
2023-03-30T15:28:58.551Z,15.68
2023-03-30T15:31:02.720Z,15.68
2023-03-30T15:33:08.402Z,15.65
2023-03-30T15:35:23.296Z,15.60
2023-03-30T15:37:26.945Z,15.61
2023-03-30T15:39:36.277Z,15.61
2023-03-30T15:41:47.721Z,15.61
2023-03-30T15:43:57.067Z,15.60
2023-03-30T15:46:03.628Z,15.62
2023-03-30T15:48:13.072Z,15.64
2023-03-30T15:50:19.367Z,15.66
2023-03-30T15:52:26.127Z,15.66
2023-03-30T15:54:38.683Z,15.62
2023-03-30T15:56:46.333Z,15.55
2023-03-30T15:58:51.002Z,15.52
2023-03-30T16:00:54.758Z,15.50
2023-03-30T16:03:00.085Z,15.47
2023-03-30T16:05:05.639Z,15.43
2023-03-30T16:07:16.729Z,15.39
2023-03-30T16:09:20.377Z,15.38
2023-03-30T16:11:25.638Z,15.31
2023-03-30T16:13:29.364Z,15.18
2023-03-30T16:15:35.089Z,15.10
2023-03-30T16:17:38.630Z,15.05
2023-03-30T16:19:42.685Z,15.01
2023-03-30T16:21:46.389Z,14.94
2023-03-30T16:23:49.964Z,14.86
2023-03-30T16:25:53.591Z,14.77
2023-03-30T16:27:58.992Z,14.67
2023-03-30T16:30:02.624Z,14.59
2023-03-30T16:32:06.574Z,14.54
2023-03-30T16:34:10.313Z,14.49
2023-03-30T16:36:16.074Z,14.48
2023-03-30T16:38:20.399Z,14.48
2023-03-30T16:40:32.593Z,14.50
2023-03-30T16:42:36.106Z,14.51
2023-03-30T16:44:41.536Z,14.55
2023-03-30T16:46:46.141Z,14.63
2023-03-30T16:48:50.519Z,14.71
2023-03-30T16:50:55.251Z,14.78
2023-03-30T16:52:58.952Z,14.80
2023-03-30T16:55:02.746Z,14.82
2023-03-30T16:57:08.632Z,14.78
2023-03-30T16:59:22.599Z,14.72
2023-03-30T17:01:28.841Z,14.67
2023-03-30T17:03:32.920Z,14.62
2023-03-30T17:05:36.522Z,14.55
2023-03-30T17:07:40.552Z,14.48
2023-03-30T17:09:44.380Z,14.41
2023-03-30T17:11:49.497Z,14.34
2023-03-30T17:13:53.044Z,14.26
2023-03-30T17:15:58.502Z,14.17
2023-03-30T17:18:06.193Z,14.06
2023-03-30T17:20:24.063Z,13.95
2023-03-30T17:22:27.699Z,13.89
2023-03-30T17:24:31.405Z,13.82
2023-03-30T17:26:35.283Z,13.71
2023-03-30T17:28:39.619Z,13.58
2023-03-30T17:30:43.246Z,13.44
2023-03-30T17:32:46.895Z,13.34
2023-03-30T17:34:51.931Z,13.25
2023-03-30T17:36:55.857Z,13.18
2023-03-30T17:39:00.178Z,13.10
2023-03-30T17:41:03.916Z,13.06
2023-03-30T17:43:08.512Z,12.97
2023-03-30T17:45:13.451Z,12.89
2023-03-30T17:47:16.819Z,12.83
2023-03-30T17:49:20.600Z,12.83
2023-03-30T17:51:26.137Z,12.83
2023-03-30T17:53:29.943Z,12.83
2023-03-30T17:55:35.180Z,12.85
2023-03-30T17:57:38.749Z,12.84
2023-03-30T17:59:42.421Z,12.83
2023-03-30T18:01:46.126Z,12.84
2023-03-30T18:03:49.909Z,12.81
2023-03-30T18:05:54.014Z,12.76
2023-03-30T18:07:59.552Z,12.72
2023-03-30T18:10:04.945Z,12.64
2023-03-30T18:12:08.816Z,12.58
2023-03-30T18:14:13.217Z,12.53
2023-03-30T18:16:18.104Z,12.50
2023-03-30T18:18:25.030Z,12.45
2023-03-30T18:20:32.418Z,12.39
2023-03-30T18:22:36.532Z,12.32
2023-03-30T18:24:43.169Z,12.29
2023-03-30T18:26:46.946Z,12.28
2023-03-30T18:28:50.501Z,12.27
2023-03-30T18:30:57.646Z,12.25
2023-03-30T18:33:01.687Z,12.27
2023-03-30T18:35:07.665Z,12.20
2023-03-30T18:37:11.347Z,12.13
2023-03-30T18:39:20.272Z,12.06
2023-03-30T18:41:26.073Z,11.99
2023-03-30T18:43:29.681Z,11.91
2023-03-30T18:45:36.006Z,11.84
2023-03-30T18:47:41.316Z,11.80
2023-03-30T18:49:45.154Z,11.68
2023-03-30T18:51:49.093Z,11.68
2023-03-30T18:53:52.510Z,11.69
2023-03-30T18:55:58.164Z,11.60
2023-03-30T18:58:03.589Z,11.56
2023-03-30T19:00:18.652Z,11.57
2023-03-30T19:02:22.432Z,11.58
2023-03-30T19:04:26.071Z,11.58
2023-03-30T19:06:29.581Z,11.51
2023-03-30T19:08:33.310Z,11.47
2023-03-30T19:10:40.027Z,11.44
2023-03-30T19:12:43.625Z,11.44
2023-03-30T19:14:49.673Z,11.44
2023-03-30T19:16:53.022Z,11.40
2023-03-30T19:18:56.551Z,11.37
2023-03-30T19:20:59.786Z,11.34
2023-03-30T19:23:03.060Z,11.35
2023-03-30T19:25:07.569Z,11.24
2023-03-30T19:27:11.237Z,11.18
2023-03-30T19:29:15.183Z,11.13
2023-03-30T19:31:21.178Z,11.12
2023-03-30T19:33:24.582Z,11.08
2023-03-30T19:35:28.410Z,11.07
2023-03-30T19:37:32.183Z,11.04
2023-03-30T19:39:35.582Z,10.99
2023-03-30T19:41:38.944Z,10.98
2023-03-30T19:43:42.213Z,10.98
2023-03-30T19:45:45.463Z,10.96
2023-03-30T19:47:51.386Z,10.94
2023-03-30T19:49:54.764Z,10.98
2023-03-30T19:51:58.031Z,10.89
2023-03-30T19:54:01.453Z,10.81
2023-03-30T19:56:04.770Z,10.73
2023-03-30T19:58:08.613Z,10.66
2023-03-30T20:00:15.953Z,10.59
2023-03-30T20:02:21.920Z,10.49
2023-03-30T20:04:26.608Z,10.30
2023-03-30T20:06:30.028Z,10.15
2023-03-30T20:08:33.335Z,10.03
2023-03-30T20:10:36.672Z,9.92
2023-03-30T20:12:39.981Z,9.88
2023-03-30T20:14:43.187Z,9.81
2023-03-30T20:16:47.644Z,9.77
2023-03-30T20:18:54.724Z,9.72
2023-03-30T20:20:59.846Z,9.69
2023-03-30T20:23:02.818Z,9.65
2023-03-30T20:25:07.887Z,9.56
2023-03-30T20:27:11.252Z,9.52
2023-03-30T20:29:14.632Z,9.52
2023-03-30T20:31:18.159Z,9.45
2023-03-30T20:33:21.930Z,9.40
2023-03-30T20:35:25.791Z,9.35
2023-03-30T20:37:30.727Z,9.31
2023-03-30T20:39:34.351Z,9.30
2023-03-30T20:41:39.197Z,9.30
2023-03-30T20:43:56.370Z,9.26
2023-03-30T20:46:03.370Z,9.21
2023-03-30T20:48:16.345Z,9.21
2023-03-30T20:50:19.804Z,9.16
2023-03-30T20:52:23.983Z,9.19
2023-03-30T20:54:29.237Z,9.19
2023-03-30T20:56:32.652Z,9.18
2023-03-30T20:58:36.129Z,9.18
2023-03-30T21:00:40.688Z,9.18
2023-03-30T21:02:44.006Z,9.14
2023-03-30T21:04:47.490Z,9.17
2023-03-30T21:06:51.944Z,9.18
2023-03-30T21:08:57.014Z,9.20
2023-03-30T21:11:02.710Z,9.21
2023-03-30T21:13:06.552Z,9.19
2023-03-30T21:15:11.215Z,9.19
2023-03-30T21:17:14.651Z,9.18
2023-03-30T21:19:17.993Z,9.19
2023-03-30T21:21:21.816Z,9.17
2023-03-30T21:23:26.859Z,9.17
2023-03-30T21:25:30.934Z,9.18
2023-03-30T21:27:35.680Z,9.17
2023-03-30T21:29:38.984Z,9.14
2023-03-30T21:31:42.271Z,9.14
2023-03-30T21:33:45.859Z,9.15
2023-03-30T21:35:53.160Z,9.14
2023-03-30T21:37:56.699Z,9.14
2023-03-30T21:39:59.946Z,9.12
2023-03-30T21:42:05.319Z,9.10
2023-03-30T21:44:10.218Z,9.08
2023-03-30T21:46:16.031Z,9.08
2023-03-30T21:48:19.448Z,9.06
2023-03-30T21:50:22.739Z,9.05
2023-03-30T21:52:26.152Z,9.04
2023-03-30T21:54:29.528Z,8.99
2023-03-30T21:56:32.806Z,8.92
2023-03-30T21:58:36.421Z,8.85
2023-03-30T22:00:41.376Z,8.83
2023-03-30T22:02:44.858Z,8.81
2023-03-30T22:04:48.594Z,8.79
2023-03-30T22:06:52.005Z,8.76
2023-03-30T22:08:56.066Z,8.75
2023-03-30T22:11:03.024Z,8.76
2023-03-30T22:13:06.880Z,8.79
2023-03-30T22:15:10.867Z,8.83
2023-03-30T22:17:15.806Z,8.86
2023-03-30T22:19:22.900Z,8.84
2023-03-30T22:21:29.299Z,8.81
2023-03-30T22:23:33.459Z,8.75
2023-03-30T22:25:37.060Z,8.73
2023-03-30T22:27:40.606Z,8.72
2023-03-30T22:29:44.063Z,8.69
2023-03-30T22:31:47.987Z,8.67
2023-03-30T22:33:54.369Z,8.66
2023-03-30T22:36:00.029Z,8.65
2023-03-30T22:38:03.736Z,8.69
2023-03-30T22:40:08.060Z,8.66
2023-03-30T22:42:11.728Z,8.61
2023-03-30T22:44:17.857Z,8.63
2023-03-30T22:46:21.567Z,8.59
2023-03-30T22:48:24.855Z,8.58
2023-03-30T22:50:29.900Z,8.55
2023-03-30T22:52:33.609Z,8.51
2023-03-30T22:54:36.540Z,8.53
2023-03-30T22:56:39.781Z,8.50
2023-03-30T22:58:42.967Z,8.48
2023-03-30T23:00:46.427Z,8.43
2023-03-30T23:02:50.807Z,8.41
2023-03-30T23:04:55.285Z,8.38
2023-03-30T23:07:00.558Z,8.33
2023-03-30T23:09:04.409Z,8.34
2023-03-30T23:11:08.437Z,8.34
2023-03-30T23:13:11.655Z,8.35
2023-03-30T23:15:15.364Z,8.34
2023-03-30T23:17:18.669Z,8.34
2023-03-30T23:19:22.632Z,8.32
2023-03-30T23:21:25.882Z,8.33
2023-03-30T23:23:30.572Z,8.33
2023-03-30T23:25:34.111Z,8.33
2023-03-30T23:27:37.998Z,8.37
2023-03-30T23:29:41.677Z,8.40
2023-03-30T23:31:44.973Z,8.39
2023-03-30T23:33:48.243Z,8.42
2023-03-30T23:35:53.327Z,8.41
2023-03-30T23:37:56.850Z,8.37
2023-03-30T23:40:02.117Z,8.37
2023-03-30T23:42:06.646Z,8.34
2023-03-30T23:44:10.025Z,8.32
2023-03-30T23:46:14.062Z,8.30
2023-03-30T23:48:17.342Z,8.29
2023-03-30T23:50:20.568Z,8.26
2023-03-30T23:52:23.802Z,8.24
2023-03-30T23:54:31.557Z,8.19
2023-03-30T23:56:42.841Z,8.16
2023-03-30T23:58:45.893Z,8.14
